createdAt,value
2022-11-25T00:01:33.257Z,10.00
2022-11-25T00:04:03.371Z,10.00
2022-11-25T00:06:34.048Z,10.00
2022-11-25T00:09:04.783Z,9.90
2022-11-25T00:11:35.256Z,10.00
2022-11-25T00:14:03.697Z,9.90
2022-11-25T00:16:32.158Z,9.90
2022-11-25T00:19:02.561Z,9.80
2022-11-25T00:21:33.782Z,9.70
2022-11-25T00:24:03.981Z,9.70
2022-11-25T00:26:34.161Z,9.70
2022-11-25T00:29:09.031Z,9.70
2022-11-25T00:31:39.674Z,9.70
2022-11-25T00:34:13.664Z,9.60
2022-11-25T00:36:41.999Z,9.50
2022-11-25T00:39:12.956Z,9.50
2022-11-25T00:41:59.353Z,9.50
2022-11-25T00:44:41.079Z,9.50
2022-11-25T00:47:12.860Z,9.40
2022-11-25T00:49:46.774Z,9.40
2022-11-25T00:52:16.611Z,9.50
2022-11-25T00:54:45.915Z,9.30
2022-11-25T00:57:14.665Z,9.20
2022-11-25T00:59:42.939Z,9.20
2022-11-25T01:02:12.519Z,9.50
2022-11-25T01:04:41.408Z,9.50
2022-11-25T01:07:11.432Z,9.50
2022-11-25T01:09:39.830Z,9.50
2022-11-25T01:12:09.148Z,9.40
2022-11-25T01:14:37.407Z,9.40
2022-11-25T01:17:08.682Z,9.40
2022-11-25T01:19:40.319Z,9.50
2022-11-25T01:22:10.434Z,9.40
2022-11-25T01:24:39.061Z,9.40
2022-11-25T01:27:07.529Z,9.50
2022-11-25T01:29:37.984Z,9.50
2022-11-25T01:32:08.774Z,9.60
2022-11-25T01:34:37.570Z,9.50
2022-11-25T01:37:06.582Z,9.60
2022-11-25T01:39:36.492Z,9.60
2022-11-25T01:42:04.986Z,9.60
2022-11-25T01:44:34.706Z,9.70
2022-11-25T01:47:11.320Z,9.60
2022-11-25T01:49:45.648Z,9.70
2022-11-25T01:52:19.757Z,9.70
2022-11-25T01:54:55.229Z,9.60
2022-11-25T01:57:26.030Z,9.60
2022-11-25T02:00:00.067Z,9.70
2022-11-25T02:02:30.185Z,9.70
2022-11-25T02:05:00.544Z,9.70
2022-11-25T02:07:32.885Z,9.60
2022-11-25T02:10:06.270Z,9.60
2022-11-25T02:12:36.703Z,9.60
2022-11-25T02:15:06.943Z,9.50
2022-11-25T02:17:36.169Z,9.50
2022-11-25T02:20:10.393Z,9.60
2022-11-25T02:22:53.244Z,9.60
2022-11-25T02:25:25.633Z,9.60
2022-11-25T02:27:58.891Z,9.60
2022-11-25T02:30:27.268Z,9.60
2022-11-25T02:32:55.732Z,9.70
2022-11-25T02:35:33.257Z,9.70
2022-11-25T02:38:08.753Z,9.60
2022-11-25T02:40:47.153Z,9.60
2022-11-25T02:43:16.111Z,9.70
2022-11-25T02:45:53.997Z,9.60
2022-11-25T02:48:45.797Z,9.70
2022-11-25T02:51:16.664Z,9.70
2022-11-25T02:53:44.990Z,9.70
2022-11-25T02:56:16.941Z,9.70
2022-11-25T02:58:45.351Z,9.70
2022-11-25T03:01:13.830Z,9.80
2022-11-25T03:03:44.916Z,9.70
2022-11-25T03:06:13.224Z,9.70
2022-11-25T03:08:41.680Z,9.70
2022-11-25T03:11:14.620Z,9.70
2022-11-25T03:13:43.022Z,9.70
2022-11-25T03:16:11.583Z,9.70
2022-11-25T03:18:40.051Z,9.80
2022-11-25T03:21:08.545Z,9.80
2022-11-25T03:23:36.951Z,9.80
2022-11-25T03:26:07.664Z,9.80
2022-11-25T03:28:40.153Z,9.90
2022-11-25T03:31:12.271Z,9.80
2022-11-25T03:33:40.693Z,9.80
2022-11-25T03:36:09.327Z,9.80
2022-11-25T03:38:37.769Z,9.80
2022-11-25T03:41:06.891Z,9.80
2022-11-25T03:43:35.909Z,9.80
2022-11-25T03:46:06.210Z,9.80
2022-11-25T03:48:37.730Z,9.70
2022-11-25T03:51:09.356Z,9.80
2022-11-25T03:53:37.711Z,9.70
2022-11-25T03:56:09.918Z,9.60
2022-11-25T03:58:38.263Z,9.60
2022-11-25T04:01:09.319Z,9.50
2022-11-25T04:03:37.742Z,9.50
2022-11-25T04:06:08.815Z,9.40
2022-11-25T04:08:37.625Z,9.40
2022-11-25T04:11:06.656Z,9.50
2022-11-25T04:13:39.114Z,9.50
2022-11-25T04:16:16.395Z,9.60
2022-11-25T04:18:44.795Z,9.50
2022-11-25T04:21:13.118Z,9.40
2022-11-25T04:23:42.068Z,9.40
2022-11-25T04:26:13.756Z,9.50
2022-11-25T04:28:45.901Z,9.50
2022-11-25T04:31:16.466Z,9.50
2022-11-25T04:33:51.080Z,9.50
2022-11-25T04:36:25.086Z,9.60
2022-11-25T04:38:53.787Z,9.40
2022-11-25T04:41:24.295Z,9.40
2022-11-25T04:43:52.693Z,9.40
2022-11-25T04:46:27.736Z,9.40
2022-11-25T04:48:56.750Z,9.50
2022-11-25T04:51:27.622Z,9.50
2022-11-25T04:54:00.467Z,9.50
2022-11-25T04:56:29.100Z,9.50
2022-11-25T04:59:20.488Z,9.60
2022-11-25T05:01:50.994Z,9.50
2022-11-25T05:04:26.174Z,9.60
2022-11-25T05:06:55.692Z,9.60
2022-11-25T05:09:26.069Z,9.60
2022-11-25T05:12:12.245Z,9.60
2022-11-25T05:14:40.879Z,9.50
2022-11-25T05:17:16.118Z,9.50
2022-11-25T05:19:46.108Z,9.50
2022-11-25T05:22:19.656Z,9.50
2022-11-25T05:24:48.386Z,9.60
2022-11-25T05:27:18.023Z,9.60
2022-11-25T05:29:49.190Z,9.60
2022-11-25T05:32:22.681Z,9.60
2022-11-25T05:34:51.274Z,9.60
2022-11-25T05:37:24.182Z,9.60
2022-11-25T05:39:59.811Z,9.50
2022-11-25T05:42:44.071Z,9.50
2022-11-25T05:45:13.417Z,9.50
2022-11-25T05:47:43.540Z,9.40
2022-11-25T05:50:18.013Z,9.40
2022-11-25T05:53:04.465Z,9.50
2022-11-25T05:55:34.460Z,9.40
2022-11-25T05:58:07.381Z,9.40
2022-11-25T06:00:36.308Z,9.30
2022-11-25T06:03:11.582Z,9.30
2022-11-25T06:05:41.282Z,9.30
2022-11-25T06:08:10.146Z,9.40
2022-11-25T06:10:40.472Z,9.30
2022-11-25T06:13:09.873Z,9.30
2022-11-25T06:15:42.495Z,9.40
2022-11-25T06:18:14.438Z,9.40
2022-11-25T06:20:43.314Z,9.50
2022-11-25T06:23:11.772Z,9.40
2022-11-25T06:25:41.410Z,9.40
2022-11-25T06:28:13.652Z,9.40
2022-11-25T06:30:46.226Z,9.30
2022-11-25T06:33:25.782Z,9.30
2022-11-25T06:35:57.525Z,9.10
2022-11-25T06:38:25.878Z,9.10
2022-11-25T06:40:57.721Z,9.00
2022-11-25T06:43:28.525Z,8.90
2022-11-25T06:45:56.853Z,8.90
2022-11-25T06:48:26.585Z,8.90
2022-11-25T06:50:59.091Z,8.90
2022-11-25T06:53:27.582Z,8.90
2022-11-25T06:56:07.222Z,8.90
2022-11-25T06:58:36.637Z,8.90
2022-11-25T07:01:06.731Z,8.90
2022-11-25T07:03:37.688Z,8.90
2022-11-25T07:06:06.903Z,9.00
2022-11-25T07:08:35.273Z,9.00
2022-11-25T07:11:05.693Z,9.10
2022-11-25T07:13:34.506Z,9.10
2022-11-25T07:16:04.136Z,9.10
2022-11-25T07:18:33.991Z,9.20
2022-11-25T07:21:08.707Z,9.10
2022-11-25T07:23:38.041Z,9.20
2022-11-25T07:26:09.009Z,9.10
2022-11-25T07:28:38.101Z,9.20
2022-11-25T07:31:27.596Z,9.30
2022-11-25T07:33:58.529Z,9.30
2022-11-25T07:36:29.562Z,9.30
2022-11-25T07:39:00.377Z,9.40
2022-11-25T07:41:29.685Z,9.40
2022-11-25T07:44:02.245Z,9.30
2022-11-25T07:46:34.784Z,9.30
2022-11-25T07:49:06.409Z,9.40
2022-11-25T07:51:38.042Z,9.40
2022-11-25T07:54:09.498Z,9.40
2022-11-25T07:56:39.599Z,9.40
2022-11-25T07:59:09.422Z,9.40
2022-11-25T08:01:37.805Z,9.40
2022-11-25T08:04:08.139Z,9.30
2022-11-25T08:06:39.939Z,9.40
2022-11-25T08:09:08.162Z,9.40
2022-11-25T08:11:36.752Z,9.40
2022-11-25T08:14:05.651Z,9.40
2022-11-25T08:16:34.327Z,9.40
2022-11-25T08:19:05.928Z,9.40
2022-11-25T08:21:37.079Z,9.50
2022-11-25T08:24:05.697Z,9.50
2022-11-25T08:26:36.623Z,9.60
2022-11-25T08:29:06.390Z,9.60
2022-11-25T08:31:37.029Z,9.60
2022-11-25T08:34:08.501Z,9.60
2022-11-25T08:36:46.537Z,9.60
2022-11-25T08:39:44.300Z,9.60
2022-11-25T08:42:05.524Z,9.60
2022-11-25T08:44:33.826Z,9.70
2022-11-25T08:47:02.182Z,9.70
2022-11-25T08:49:34.957Z,9.60
2022-11-25T08:52:10.590Z,9.60
2022-11-25T08:54:41.052Z,9.70
2022-11-25T08:57:09.398Z,9.70
2022-11-25T08:59:37.877Z,9.80
2022-11-25T09:02:06.731Z,9.90
2022-11-25T09:04:35.382Z,9.80
2022-11-25T09:07:05.860Z,9.80
2022-11-25T09:09:36.046Z,9.80
2022-11-25T09:12:05.388Z,9.80
2022-11-25T09:14:33.725Z,9.80
2022-11-25T09:17:03.843Z,9.90
2022-11-25T09:19:32.265Z,9.90
2022-11-25T09:22:00.565Z,10.00
2022-11-25T09:24:29.084Z,10.00
2022-11-25T09:26:58.770Z,10.10
2022-11-25T09:29:27.885Z,10.20
2022-11-25T09:31:56.286Z,10.30
2022-11-25T09:34:24.693Z,10.20
2022-11-25T09:36:53.087Z,10.30
2022-11-25T09:39:21.402Z,10.30
2022-11-25T09:42:20.241Z,10.30
2022-11-25T09:45:19.940Z,10.40
2022-11-25T09:47:57.798Z,10.50
2022-11-25T09:50:29.804Z,10.50
2022-11-25T09:53:08.185Z,10.50
2022-11-25T09:55:41.006Z,10.60
2022-11-25T09:58:21.592Z,10.70
2022-11-25T10:00:52.202Z,10.80
2022-11-25T10:03:35.541Z,10.80
2022-11-25T10:06:09.826Z,10.80
2022-11-25T10:08:40.974Z,10.90
2022-11-25T10:11:20.185Z,11.00
2022-11-25T10:13:56.346Z,11.00
2022-11-25T10:16:35.529Z,11.00
2022-11-25T10:19:13.141Z,11.00
2022-11-25T10:21:41.696Z,11.10
2022-11-25T10:24:15.504Z,11.20
2022-11-25T10:26:45.765Z,11.20
2022-11-25T10:29:25.811Z,11.20
2022-11-25T10:32:02.554Z,11.30
2022-11-25T10:34:37.041Z,11.20
2022-11-25T10:37:14.059Z,11.10
2022-11-25T10:39:44.587Z,11.10
2022-11-25T10:42:19.729Z,11.20
2022-11-25T10:44:49.536Z,11.20
2022-11-25T10:47:36.294Z,11.10
2022-11-25T10:50:17.135Z,11.00
2022-11-25T10:52:55.354Z,11.00
2022-11-25T10:55:26.605Z,11.00
2022-11-25T10:57:56.023Z,11.10
2022-11-25T11:00:32.903Z,11.10
2022-11-25T11:03:14.238Z,11.20
2022-11-25T11:05:47.901Z,11.10
2022-11-25T11:08:22.077Z,11.20
2022-11-25T11:11:12.528Z,11.10
2022-11-25T11:13:41.005Z,11.10
2022-11-25T11:16:27.933Z,10.90
2022-11-25T11:18:57.221Z,10.90
2022-11-25T11:21:30.806Z,10.80
2022-11-25T11:24:00.967Z,10.80
2022-11-25T11:26:33.197Z,10.80
2022-11-25T11:29:08.345Z,10.80
2022-11-25T11:31:46.416Z,10.70
2022-11-25T11:34:42.357Z,10.80
2022-11-25T11:37:22.887Z,10.90
2022-11-25T11:40:04.985Z,10.90
2022-11-25T11:42:44.858Z,11.00
2022-11-25T11:45:33.063Z,11.00
2022-11-25T11:48:13.391Z,11.10
2022-11-25T11:50:46.790Z,11.10
2022-11-25T11:53:23.920Z,11.10
2022-11-25T11:56:33.675Z,11.20
2022-11-25T11:59:09.982Z,11.20
2022-11-25T12:01:49.338Z,11.20
2022-11-25T12:04:26.344Z,11.20
2022-11-25T12:07:03.722Z,11.40
2022-11-25T12:09:38.421Z,11.50
2022-11-25T12:12:10.649Z,11.40
2022-11-25T12:14:44.242Z,11.50
2022-11-25T12:17:19.721Z,11.60
2022-11-25T12:19:56.626Z,11.70
2022-11-25T12:22:29.083Z,11.70
2022-11-25T12:25:04.737Z,11.70
2022-11-25T12:27:37.495Z,11.60
2022-11-25T12:30:08.673Z,11.70
2022-11-25T12:32:49.811Z,11.80
2022-11-25T12:35:25.909Z,11.80
2022-11-25T12:38:02.957Z,11.80
2022-11-25T12:40:38.669Z,11.70
2022-11-25T12:43:21.187Z,11.70
2022-11-25T12:45:52.943Z,11.70
2022-11-25T12:48:23.821Z,11.60
2022-11-25T12:51:03.987Z,11.70
2022-11-25T12:53:41.540Z,11.70
2022-11-25T12:56:19.973Z,11.60
2022-11-25T12:59:02.232Z,11.70
2022-11-25T13:01:50.259Z,11.80
2022-11-25T13:04:48.755Z,11.90
2022-11-25T13:07:41.697Z,11.90
2022-11-25T13:10:40.160Z,11.80
2022-11-25T13:13:34.151Z,11.90
2022-11-25T13:16:06.887Z,11.90
2022-11-25T13:18:39.386Z,11.80
2022-11-25T13:21:09.394Z,11.80
2022-11-25T13:23:49.755Z,11.70
2022-11-25T13:26:50.675Z,11.70
2022-11-25T13:30:02.143Z,11.70
2022-11-25T13:32:35.951Z,11.70
2022-11-25T13:35:38.717Z,11.70
2022-11-25T13:38:48.679Z,11.70
2022-11-25T13:41:33.606Z,11.80
2022-11-25T13:44:07.911Z,11.90
2022-11-25T13:46:41.655Z,11.80
2022-11-25T13:49:24.652Z,11.80
2022-11-25T13:51:55.368Z,11.80
2022-11-25T13:54:31.754Z,11.70
2022-11-25T13:57:18.778Z,11.70
2022-11-25T13:59:55.632Z,11.80
2022-11-25T14:02:49.780Z,11.90
2022-11-25T14:05:48.703Z,11.90
2022-11-25T14:08:31.939Z,11.80
2022-11-25T14:11:05.891Z,11.70
2022-11-25T14:13:47.343Z,11.80
2022-11-25T14:16:23.703Z,11.90
2022-11-25T14:19:35.136Z,11.90
2022-11-25T14:21:54.728Z,11.90
2022-11-25T14:24:29.817Z,11.90
2022-11-25T14:26:58.843Z,11.80
2022-11-25T14:29:30.157Z,11.80
2022-11-25T14:32:00.866Z,11.80
2022-11-25T14:34:31.429Z,11.70
2022-11-25T14:37:06.425Z,11.80
2022-11-25T14:39:37.013Z,11.90
2022-11-25T14:42:07.286Z,11.90
2022-11-25T14:44:40.726Z,11.90
2022-11-25T14:47:10.873Z,11.90
2022-11-25T14:49:55.352Z,11.90
2022-11-25T14:52:35.577Z,11.90
2022-11-25T14:55:05.065Z,11.80
2022-11-25T14:57:35.341Z,11.80
2022-11-25T15:00:08.538Z,11.80
2022-11-25T15:02:37.830Z,11.70
2022-11-25T15:05:17.562Z,11.80
2022-11-25T15:07:54.465Z,11.80
2022-11-25T15:10:46.514Z,11.80
2022-11-25T15:13:21.830Z,11.80
2022-11-25T15:15:51.729Z,11.70
2022-11-25T15:18:21.519Z,11.80
2022-11-25T15:20:51.053Z,11.80
2022-11-25T15:23:21.386Z,11.80
2022-11-25T15:25:50.608Z,11.80
2022-11-25T15:28:18.729Z,11.80
2022-11-25T15:30:58.403Z,11.80
2022-11-25T15:33:30.093Z,11.90
2022-11-25T15:35:58.222Z,11.90
2022-11-25T15:38:36.961Z,11.80
2022-11-25T15:41:05.493Z,11.80
2022-11-25T15:43:35.565Z,11.80
2022-11-25T15:46:06.334Z,11.80
2022-11-25T15:48:36.154Z,11.90
2022-11-25T15:51:06.298Z,11.80
2022-11-25T15:53:37.700Z,11.90
2022-11-25T15:56:08.005Z,12.00
2022-11-25T15:58:36.292Z,11.90
2022-11-25T16:01:07.061Z,12.00
2022-11-25T16:03:37.438Z,12.00
2022-11-25T16:06:19.455Z,12.00
2022-11-25T16:08:53.203Z,12.00
2022-11-25T16:11:25.452Z,12.10
2022-11-25T16:13:54.263Z,12.10
2022-11-25T16:16:25.108Z,12.00
2022-11-25T16:18:55.718Z,12.00
2022-11-25T16:21:25.171Z,12.00
2022-11-25T16:23:53.883Z,12.10
2022-11-25T16:26:25.116Z,12.00
2022-11-25T16:28:54.671Z,12.00
2022-11-25T16:31:26.737Z,12.00
2022-11-25T16:33:55.547Z,12.00
2022-11-25T16:36:23.616Z,12.00
2022-11-25T16:38:53.124Z,12.00
2022-11-25T16:41:22.109Z,12.00
2022-11-25T16:43:50.246Z,11.90
2022-11-25T16:46:19.764Z,11.90
2022-11-25T16:48:49.361Z,12.00
2022-11-25T16:51:18.708Z,11.90
2022-11-25T16:53:47.545Z,12.00
2022-11-25T16:56:16.582Z,12.00
2022-11-25T16:58:45.375Z,12.00
2022-11-25T17:01:14.983Z,12.00
2022-11-25T17:03:43.624Z,12.00
2022-11-25T17:06:21.348Z,11.90
2022-11-25T17:08:52.907Z,12.00
2022-11-25T17:11:22.559Z,12.10
2022-11-25T17:13:51.799Z,12.10
2022-11-25T17:16:20.992Z,12.20
2022-11-25T17:18:53.604Z,12.00
2022-11-25T17:21:26.922Z,12.00
2022-11-25T17:23:55.648Z,12.00
2022-11-25T17:26:27.369Z,11.90
2022-11-25T17:28:56.917Z,12.00
2022-11-25T17:31:27.299Z,12.00
2022-11-25T17:33:55.573Z,12.00
2022-11-25T17:36:26.322Z,12.00
2022-11-25T17:38:56.565Z,12.10
2022-11-25T17:41:26.899Z,12.10
2022-11-25T17:43:55.420Z,12.10
2022-11-25T17:46:28.615Z,12.20
2022-11-25T17:49:00.462Z,12.20
2022-11-25T17:51:30.016Z,12.20
2022-11-25T17:53:58.194Z,12.10
2022-11-25T17:56:27.750Z,12.20
2022-11-25T17:58:56.683Z,12.20
2022-11-25T18:01:24.921Z,12.20
2022-11-25T18:03:54.060Z,12.20
2022-11-25T18:06:23.247Z,12.20
2022-11-25T18:08:52.704Z,12.20
2022-11-25T18:11:22.947Z,12.30
2022-11-25T18:13:51.667Z,12.20
2022-11-25T18:16:23.408Z,12.20
2022-11-25T18:18:51.617Z,12.20
2022-11-25T18:21:20.107Z,12.20
2022-11-25T18:23:48.221Z,12.20
2022-11-25T18:26:17.720Z,12.20
2022-11-25T18:28:45.972Z,12.30
2022-11-25T18:31:14.179Z,12.30
2022-11-25T18:33:44.776Z,12.20
2022-11-25T18:36:14.802Z,12.20
2022-11-25T18:38:42.874Z,12.20
2022-11-25T18:41:18.010Z,12.20
2022-11-25T18:43:47.561Z,12.20
2022-11-25T18:46:15.807Z,12.30
2022-11-25T18:48:43.977Z,12.30
2022-11-25T18:51:13.297Z,12.30
2022-11-25T18:53:41.439Z,12.20
2022-11-25T18:56:17.457Z,12.30
2022-11-25T18:58:50.568Z,12.20
2022-11-25T19:01:21.414Z,12.20
2022-11-25T19:03:53.761Z,12.20
2022-11-25T19:06:22.472Z,12.20
2022-11-25T19:08:52.474Z,12.20
2022-11-25T19:11:29.695Z,12.20
2022-11-25T19:14:04.039Z,12.20
2022-11-25T19:16:32.229Z,12.20
2022-11-25T19:19:00.379Z,12.10
2022-11-25T19:21:30.556Z,12.20
2022-11-25T19:23:58.745Z,12.20
2022-11-25T19:26:28.708Z,12.20
2022-11-25T19:29:00.012Z,12.20
2022-11-25T19:31:30.634Z,12.20
2022-11-25T19:33:58.904Z,12.20
2022-11-25T19:36:27.676Z,12.20
2022-11-25T19:38:55.816Z,12.20
2022-11-25T19:41:23.989Z,12.20
2022-11-25T19:43:52.067Z,12.20
2022-11-25T19:46:30.003Z,12.20
2022-11-25T19:49:06.579Z,12.30
2022-11-25T19:51:35.630Z,12.30
2022-11-25T19:54:03.707Z,12.50
2022-11-25T19:56:31.837Z,12.50
2022-11-25T19:59:02.249Z,12.50
2022-11-25T20:01:34.063Z,12.50
2022-11-25T20:04:03.419Z,12.60
2022-11-25T20:06:33.362Z,12.70
2022-11-25T20:09:07.622Z,12.70
2022-11-25T20:11:36.918Z,12.70
2022-11-25T20:14:05.310Z,12.70
2022-11-25T20:16:35.789Z,12.60
2022-11-25T20:19:07.235Z,12.60
2022-11-25T20:21:38.206Z,12.60
2022-11-25T20:24:07.527Z,12.70
2022-11-25T20:26:37.141Z,12.70
2022-11-25T20:29:15.073Z,12.70
2022-11-25T20:31:43.251Z,12.60
2022-11-25T20:34:13.735Z,12.60
2022-11-25T20:36:44.232Z,12.60
2022-11-25T20:39:18.244Z,12.70
2022-11-25T20:41:48.249Z,12.60
2022-11-25T20:44:16.477Z,12.60
2022-11-25T20:46:45.838Z,12.60
2022-11-25T20:49:20.315Z,12.60
2022-11-25T20:51:50.512Z,12.50
2022-11-25T20:54:18.914Z,12.50
2022-11-25T20:56:47.029Z,12.40
2022-11-25T20:59:19.554Z,12.40
2022-11-25T21:01:47.859Z,12.40
2022-11-25T21:04:16.092Z,12.50
2022-11-25T21:06:44.278Z,12.60
2022-11-25T21:09:16.458Z,12.60
2022-11-25T21:11:44.602Z,12.60
2022-11-25T21:14:14.190Z,12.60
2022-11-25T21:16:42.407Z,12.60
2022-11-25T21:19:12.679Z,12.60
2022-11-25T21:21:42.036Z,12.50
2022-11-25T21:24:18.522Z,12.50
2022-11-25T21:26:48.087Z,12.50
2022-11-25T21:29:17.232Z,12.50
2022-11-25T21:31:45.591Z,12.50
2022-11-25T21:34:14.388Z,12.50
2022-11-25T21:36:46.339Z,12.50
2022-11-25T21:39:19.668Z,12.50
2022-11-25T21:41:51.596Z,12.50
2022-11-25T21:44:22.398Z,12.50
2022-11-25T21:46:50.497Z,12.50
2022-11-25T21:49:18.713Z,12.50
2022-11-25T21:51:46.812Z,12.50
2022-11-25T21:54:17.321Z,12.50
2022-11-25T21:56:45.792Z,12.60
2022-11-25T21:59:19.302Z,12.60
2022-11-25T22:01:47.982Z,12.50
2022-11-25T22:04:17.051Z,12.50
2022-11-25T22:06:45.161Z,12.50
2022-11-25T22:09:15.954Z,12.50
2022-11-25T22:11:45.061Z,12.50
2022-11-25T22:14:23.751Z,12.50
2022-11-25T22:16:52.683Z,12.50
2022-11-25T22:19:21.969Z,12.50
2022-11-25T22:21:50.265Z,12.50
2022-11-25T22:24:19.407Z,12.50
2022-11-25T22:26:51.324Z,12.60
2022-11-25T22:29:24.953Z,12.60
2022-11-25T22:31:53.118Z,12.70
2022-11-25T22:34:22.350Z,12.70
2022-11-25T22:36:51.152Z,12.80
2022-11-25T22:39:19.707Z,12.90
2022-11-25T22:41:49.649Z,12.90
2022-11-25T22:44:20.369Z,13.00
2022-11-25T22:46:51.234Z,12.90
2022-11-25T22:49:34.137Z,13.00
2022-11-25T22:52:02.347Z,13.00
2022-11-25T22:54:30.590Z,13.10
2022-11-25T22:56:59.020Z,13.10
2022-11-25T22:59:27.242Z,13.10
2022-11-25T23:01:56.898Z,13.10
2022-11-25T23:04:25.038Z,13.10
2022-11-25T23:06:53.960Z,13.10
2022-11-25T23:09:22.275Z,13.10
2022-11-25T23:11:50.455Z,13.20
2022-11-25T23:14:18.575Z,13.10
2022-11-25T23:16:46.786Z,13.10
2022-11-25T23:19:17.674Z,13.20
2022-11-25T23:21:46.290Z,13.20
2022-11-25T23:24:14.902Z,13.20
2022-11-25T23:26:45.402Z,13.30
2022-11-25T23:29:13.493Z,13.30
2022-11-25T23:31:41.987Z,13.30
2022-11-25T23:34:13.858Z,13.30
2022-11-25T23:36:45.872Z,13.30
2022-11-25T23:39:18.985Z,13.40
2022-11-25T23:41:47.478Z,13.40
2022-11-25T23:44:17.993Z,13.40
2022-11-25T23:46:46.481Z,13.50
2022-11-25T23:49:23.388Z,13.50
2022-11-25T23:51:56.026Z,13.50
2022-11-25T23:54:30.606Z,13.50
2022-11-25T23:56:58.994Z,13.50
2022-11-25T23:59:31.059Z,13.50
